createdAt,value
2019-05-06T00:01:23.963Z,5.05
2019-05-06T00:03:54.170Z,5.02
2019-05-06T00:06:23.665Z,4.99
2019-05-06T00:08:52.033Z,4.98
2019-05-06T00:11:20.268Z,4.96
2019-05-06T00:13:48.752Z,4.90
2019-05-06T00:16:17.248Z,4.87
2019-05-06T00:18:45.447Z,4.87
2019-05-06T00:21:14.784Z,4.90
2019-05-06T00:23:50.531Z,4.86
2019-05-06T00:26:33.988Z,4.84
2019-05-06T00:29:04.510Z,4.81
2019-05-06T00:31:34.611Z,4.78
2019-05-06T00:34:04.376Z,4.71
2019-05-06T00:36:34.482Z,4.71
2019-05-06T00:39:04.666Z,4.68
2019-05-06T00:41:36.400Z,4.66
2019-05-06T00:44:04.139Z,4.66
2019-05-06T00:46:34.373Z,4.65
2019-05-06T00:49:03.870Z,4.67
2019-05-06T00:51:33.930Z,4.67
2019-05-06T00:54:04.143Z,4.67
2019-05-06T00:56:34.105Z,4.67
2019-05-06T00:59:03.722Z,4.64
2019-05-06T01:01:34.274Z,4.60
2019-05-06T01:04:04.448Z,4.57
2019-05-06T01:06:34.437Z,4.53
2019-05-06T01:09:04.588Z,4.50
2019-05-06T01:11:34.609Z,4.48
2019-05-06T01:14:04.551Z,4.48
2019-05-06T01:16:34.520Z,4.51
2019-05-06T01:19:04.715Z,4.51
2019-05-06T01:21:34.171Z,4.51
2019-05-06T01:24:03.995Z,4.48
2019-05-06T01:26:33.718Z,4.46
2019-05-06T01:29:03.915Z,4.47
2019-05-06T01:31:42.020Z,4.46
2019-05-06T01:34:04.211Z,4.44
2019-05-06T01:36:34.118Z,4.41
2019-05-06T01:39:19.944Z,4.42
2019-05-06T01:41:53.699Z,4.42
2019-05-06T01:44:21.553Z,4.39
2019-05-06T01:46:49.708Z,4.37
2019-05-06T01:49:17.910Z,4.30
2019-05-06T01:51:46.140Z,4.29
2019-05-06T01:54:14.396Z,4.27
2019-05-06T01:56:44.493Z,4.25
2019-05-06T01:59:13.996Z,4.22
2019-05-06T02:01:54.895Z,4.18
2019-05-06T02:04:13.861Z,4.16
2019-05-06T02:06:43.802Z,4.15
2019-05-06T02:09:15.429Z,4.14
2019-05-06T02:11:45.180Z,4.13
2019-05-06T02:14:14.039Z,4.12
2019-05-06T02:16:43.633Z,4.13
2019-05-06T02:19:11.986Z,4.13
2019-05-06T02:21:43.731Z,4.14
2019-05-06T02:24:24.312Z,4.14
2019-05-06T02:26:54.261Z,4.14
2019-05-06T02:29:43.477Z,4.15
2019-05-06T02:32:23.981Z,4.17
2019-05-06T02:34:47.648Z,4.14
2019-05-06T02:37:25.374Z,4.13
2019-05-06T02:39:53.697Z,4.13
2019-05-06T02:42:23.970Z,4.10
2019-05-06T02:44:54.036Z,4.10
2019-05-06T02:47:42.992Z,4.09
2019-05-06T02:50:13.424Z,4.06
2019-05-06T02:52:44.109Z,4.06
2019-05-06T02:55:12.914Z,4.06
2019-05-06T02:57:43.983Z,4.05
2019-05-06T03:00:19.910Z,4.07
2019-05-06T03:02:48.753Z,4.07
2019-05-06T03:05:17.022Z,4.04
2019-05-06T03:07:45.251Z,4.02
2019-05-06T03:10:14.759Z,4.00
2019-05-06T03:12:43.260Z,3.96
2019-05-06T03:15:16.271Z,3.96
2019-05-06T03:17:43.544Z,3.96
2019-05-06T03:20:13.280Z,3.95
2019-05-06T03:22:43.896Z,3.93
2019-05-06T03:25:13.718Z,3.91
2019-05-06T03:27:46.557Z,3.88
2019-05-06T03:30:16.630Z,3.87
2019-05-06T03:33:21.029Z,3.86
2019-05-06T03:35:27.347Z,3.85
2019-05-06T03:37:44.046Z,3.83
2019-05-06T03:40:13.912Z,3.83
2019-05-06T03:42:42.755Z,3.85
2019-05-06T03:45:13.276Z,3.86
2019-05-06T03:47:54.240Z,3.89
2019-05-06T03:50:24.090Z,3.94
2019-05-06T03:52:56.140Z,3.98
2019-05-06T03:55:23.446Z,3.97
2019-05-06T03:57:53.903Z,3.99
2019-05-06T04:00:23.754Z,4.03
2019-05-06T04:02:53.575Z,4.09
2019-05-06T04:05:23.816Z,4.18
2019-05-06T04:07:53.018Z,4.23
2019-05-06T04:10:22.867Z,4.34
2019-05-06T04:12:53.627Z,4.72
2019-05-06T04:15:22.960Z,5.34
2019-05-06T04:17:54.137Z,5.57
2019-05-06T04:20:26.915Z,5.74
2019-05-06T04:22:59.916Z,6.35
2019-05-06T04:25:48.097Z,6.96
2019-05-06T04:28:23.542Z,7.56
2019-05-06T04:30:50.562Z,8.24
2019-05-06T04:33:18.784Z,8.96
2019-05-06T04:35:46.989Z,9.31
2019-05-06T04:38:15.566Z,9.45
2019-05-06T04:40:44.184Z,8.86
2019-05-06T04:43:13.358Z,7.97
2019-05-06T04:45:43.374Z,7.19
2019-05-06T04:48:14.452Z,6.71
2019-05-06T04:50:44.388Z,6.42
2019-05-06T04:53:13.749Z,6.32
2019-05-06T04:55:43.610Z,5.73
2019-05-06T04:58:13.610Z,6.45
2019-05-06T05:00:44.445Z,6.58
2019-05-06T05:03:14.075Z,6.61
2019-05-06T05:05:44.467Z,6.59
2019-05-06T05:08:13.367Z,6.65
2019-05-06T05:10:49.747Z,6.85
2019-05-06T05:13:23.097Z,6.96
2019-05-06T05:16:07.903Z,7.11
2019-05-06T05:18:38.054Z,8.20
2019-05-06T05:21:06.296Z,8.82
2019-05-06T05:23:34.506Z,9.63
2019-05-06T05:26:03.041Z,10.47
2019-05-06T05:28:32.056Z,11.56
2019-05-06T05:31:00.392Z,12.22
2019-05-06T05:33:28.609Z,12.67
2019-05-06T05:35:57.709Z,13.01
2019-05-06T05:38:25.988Z,13.33
2019-05-06T05:40:54.622Z,13.63
2019-05-06T05:43:33.893Z,13.31
2019-05-06T05:46:03.026Z,12.51
2019-05-06T05:48:35.605Z,11.41
2019-05-06T05:51:03.828Z,10.60
2019-05-06T05:53:32.962Z,9.92
2019-05-06T05:56:02.562Z,9.46
2019-05-06T05:58:33.005Z,9.14
2019-05-06T06:01:01.073Z,8.95
2019-05-06T06:03:29.315Z,8.85
2019-05-06T06:05:57.515Z,8.69
2019-05-06T06:08:25.741Z,8.61
2019-05-06T06:10:58.009Z,8.52
2019-05-06T06:13:26.211Z,8.41
2019-05-06T06:15:56.147Z,8.31
2019-05-06T06:18:43.095Z,8.24
2019-05-06T06:21:24.735Z,8.21
2019-05-06T06:23:52.914Z,8.24
2019-05-06T06:26:22.701Z,8.29
2019-05-06T06:28:52.241Z,8.32
2019-05-06T06:31:23.061Z,8.48
2019-05-06T06:33:53.329Z,8.80
2019-05-06T06:36:38.127Z,9.03
2019-05-06T06:39:09.603Z,9.28
2019-05-06T06:41:37.817Z,9.31
2019-05-06T06:44:07.657Z,9.13
2019-05-06T06:46:35.862Z,9.03
2019-05-06T06:49:04.085Z,8.93
2019-05-06T06:51:33.035Z,8.95
2019-05-06T06:54:02.494Z,9.04
2019-05-06T06:56:32.966Z,9.06
2019-05-06T06:59:12.819Z,9.06
2019-05-06T07:01:45.769Z,9.08
2019-05-06T07:04:18.042Z,9.12
2019-05-06T07:06:48.210Z,9.15
2019-05-06T07:09:16.432Z,9.18
2019-05-06T07:11:44.642Z,9.33
2019-05-06T07:14:13.698Z,9.39
2019-05-06T07:16:43.025Z,9.41
2019-05-06T07:19:13.144Z,9.51
2019-05-06T07:21:43.693Z,9.70
2019-05-06T07:24:13.094Z,9.90
2019-05-06T07:26:43.029Z,10.05
2019-05-06T07:29:15.316Z,10.03
2019-05-06T07:31:42.630Z,10.27
2019-05-06T07:34:11.976Z,10.36
2019-05-06T07:36:40.245Z,10.49
2019-05-06T07:39:08.467Z,10.55
2019-05-06T07:41:38.307Z,10.52
2019-05-06T07:44:08.189Z,10.43
2019-05-06T07:46:43.913Z,10.58
2019-05-06T07:49:12.703Z,10.97
2019-05-06T07:51:42.006Z,11.51
2019-05-06T07:54:12.213Z,11.60
2019-05-06T07:56:40.301Z,11.67
2019-05-06T07:59:08.947Z,11.61
2019-05-06T08:01:44.158Z,11.44
2019-05-06T08:04:13.096Z,11.27
2019-05-06T08:06:42.734Z,11.05
2019-05-06T08:09:12.954Z,10.82
2019-05-06T08:11:42.221Z,10.59
2019-05-06T08:14:12.761Z,10.40
2019-05-06T08:16:44.341Z,10.28
2019-05-06T08:19:12.097Z,10.15
2019-05-06T08:21:44.859Z,9.96
2019-05-06T08:24:13.073Z,9.70
2019-05-06T08:26:42.823Z,9.49
2019-05-06T08:29:12.174Z,9.41
2019-05-06T08:31:42.953Z,9.29
2019-05-06T08:34:12.262Z,9.25
2019-05-06T08:36:42.729Z,9.36
2019-05-06T08:39:13.033Z,9.63
2019-05-06T08:41:42.367Z,9.79
2019-05-06T08:44:12.605Z,10.00
2019-05-06T08:46:42.841Z,10.23
2019-05-06T08:49:12.288Z,10.48
2019-05-06T08:51:47.829Z,10.88
2019-05-06T08:54:27.142Z,10.88
2019-05-06T08:56:55.339Z,10.87
2019-05-06T08:59:24.129Z,10.98
2019-05-06T09:01:54.175Z,11.18
2019-05-06T09:04:22.899Z,11.40
2019-05-06T09:06:53.205Z,11.72
2019-05-06T09:09:22.417Z,11.99
2019-05-06T09:11:53.232Z,12.22
2019-05-06T09:14:23.247Z,12.35
2019-05-06T09:16:53.946Z,12.21
2019-05-06T09:19:23.339Z,11.97
2019-05-06T09:21:53.320Z,11.71
2019-05-06T09:24:23.059Z,11.43
2019-05-06T09:26:53.097Z,11.18
2019-05-06T09:29:23.161Z,10.98
2019-05-06T09:31:55.759Z,10.85
2019-05-06T09:34:34.715Z,10.55
2019-05-06T09:37:14.072Z,10.40
2019-05-06T09:39:43.442Z,10.42
2019-05-06T09:42:12.852Z,10.38
2019-05-06T09:44:42.722Z,10.24
2019-05-06T09:47:22.962Z,10.30
2019-05-06T09:49:53.069Z,10.56
2019-05-06T09:52:23.224Z,10.96
2019-05-06T09:54:56.134Z,11.38
2019-05-06T09:57:28.055Z,11.67
2019-05-06T09:59:56.215Z,12.05
2019-05-06T10:02:24.736Z,12.37
2019-05-06T10:04:52.941Z,12.44
2019-05-06T10:07:22.619Z,12.35
2019-05-06T10:09:52.690Z,12.25
2019-05-06T10:12:21.056Z,11.90
2019-05-06T10:14:49.279Z,11.29
2019-05-06T10:17:17.509Z,10.79
2019-05-06T10:19:45.738Z,10.50
2019-05-06T10:22:13.939Z,10.44
2019-05-06T10:24:43.165Z,10.46
2019-05-06T10:27:12.248Z,10.51
2019-05-06T10:29:43.162Z,10.48
2019-05-06T10:32:29.249Z,10.46
2019-05-06T10:34:57.443Z,10.63
2019-05-06T10:37:29.597Z,10.78
2019-05-06T10:40:04.603Z,10.92
2019-05-06T10:42:36.115Z,11.05
2019-05-06T10:45:07.832Z,11.19
2019-05-06T10:47:36.141Z,11.38
2019-05-06T10:50:04.954Z,11.62
2019-05-06T10:52:37.685Z,11.74
2019-05-06T10:55:05.976Z,11.93
2019-05-06T10:57:40.396Z,12.22
2019-05-06T11:00:08.646Z,12.58
2019-05-06T11:02:47.830Z,12.74
2019-05-06T11:05:16.347Z,12.61
2019-05-06T11:07:44.840Z,12.39
2019-05-06T11:10:23.759Z,12.08
2019-05-06T11:12:44.190Z,11.81
2019-05-06T11:15:12.565Z,11.50
2019-05-06T11:17:43.416Z,11.26
2019-05-06T11:20:13.935Z,10.91
2019-05-06T11:22:43.357Z,10.70
2019-05-06T11:25:12.321Z,10.64
2019-05-06T11:27:42.537Z,10.55
2019-05-06T11:30:12.841Z,10.31
2019-05-06T11:32:44.464Z,9.99
2019-05-06T11:35:14.254Z,9.83
2019-05-06T11:37:50.211Z,9.78
2019-05-06T11:40:17.079Z,9.85
2019-05-06T11:42:44.314Z,9.98
2019-05-06T11:45:12.515Z,10.04
2019-05-06T11:47:42.072Z,10.25
2019-05-06T11:50:12.931Z,10.56
2019-05-06T11:52:43.305Z,10.90
2019-05-06T11:55:12.667Z,11.25
2019-05-06T11:57:44.577Z,11.61
2019-05-06T12:00:14.415Z,11.82
2019-05-06T12:02:47.985Z,11.79
2019-05-06T12:05:13.092Z,11.59
2019-05-06T12:07:44.859Z,11.31
2019-05-06T12:10:12.949Z,10.99
2019-05-06T12:12:42.539Z,10.35
2019-05-06T12:15:12.577Z,9.85
2019-05-06T12:17:42.197Z,9.59
2019-05-06T12:20:12.915Z,9.49
2019-05-06T12:22:42.325Z,9.47
2019-05-06T12:25:15.262Z,9.68
2019-05-06T12:27:44.757Z,9.96
2019-05-06T12:30:15.830Z,10.22
2019-05-06T12:32:45.687Z,10.35
2019-05-06T12:35:13.918Z,10.32
2019-05-06T12:37:44.154Z,10.22
2019-05-06T12:40:12.710Z,10.02
2019-05-06T12:42:45.600Z,9.81
2019-05-06T12:45:23.188Z,9.72
2019-05-06T12:47:53.480Z,9.78
2019-05-06T12:50:22.748Z,10.01
2019-05-06T12:52:52.527Z,10.41
2019-05-06T12:55:25.154Z,10.81
2019-05-06T12:57:53.037Z,10.91
2019-05-06T13:00:23.460Z,10.91
2019-05-06T13:02:53.047Z,10.84
2019-05-06T13:05:21.803Z,10.76
2019-05-06T13:07:50.005Z,10.73
2019-05-06T13:10:18.884Z,10.64
2019-05-06T13:12:48.733Z,10.51
2019-05-06T13:15:17.269Z,10.38
2019-05-06T13:17:45.477Z,10.28
2019-05-06T13:20:14.797Z,10.20
2019-05-06T13:22:53.396Z,10.15
2019-05-06T13:25:23.363Z,10.12
2019-05-06T13:27:52.946Z,10.21
2019-05-06T13:30:22.756Z,10.35
2019-05-06T13:32:52.788Z,10.47
2019-05-06T13:35:23.105Z,10.48
2019-05-06T13:37:52.791Z,10.47
2019-05-06T13:40:22.771Z,10.55
2019-05-06T13:43:07.775Z,10.72
2019-05-06T13:45:36.356Z,10.84
2019-05-06T13:48:06.217Z,10.96
2019-05-06T13:50:38.400Z,11.09
2019-05-06T13:53:11.520Z,11.22
2019-05-06T13:55:36.122Z,11.34
2019-05-06T13:58:04.357Z,11.48
2019-05-06T14:00:33.318Z,11.47
2019-05-06T14:03:02.117Z,11.40
2019-05-06T14:05:32.878Z,11.45
2019-05-06T14:08:04.190Z,11.52
2019-05-06T14:10:32.662Z,11.48
2019-05-06T14:13:02.436Z,11.46
2019-05-06T14:15:32.560Z,11.35
2019-05-06T14:18:02.587Z,11.30
2019-05-06T14:20:30.662Z,11.25
2019-05-06T14:22:58.862Z,11.16
2019-05-06T14:25:35.043Z,11.07
2019-05-06T14:28:14.268Z,10.99
2019-05-06T14:30:44.103Z,10.96
2019-05-06T14:33:15.503Z,10.95
2019-05-06T14:35:43.978Z,10.98
2019-05-06T14:38:13.531Z,10.97
2019-05-06T14:41:04.394Z,11.01
2019-05-06T14:43:32.211Z,11.14
2019-05-06T14:45:59.938Z,11.46
2019-05-06T14:48:28.139Z,11.74
2019-05-06T14:50:57.352Z,11.75
2019-05-06T14:53:25.703Z,11.61
2019-05-06T14:55:55.836Z,11.51
2019-05-06T14:58:24.153Z,11.35
2019-05-06T15:00:53.357Z,11.26
2019-05-06T15:03:22.215Z,11.27
2019-05-06T15:05:50.559Z,11.27
2019-05-06T15:08:18.763Z,11.20
2019-05-06T15:10:49.406Z,11.09
2019-05-06T15:13:16.944Z,11.01
2019-05-06T15:15:45.433Z,11.04
2019-05-06T15:18:14.096Z,11.11
2019-05-06T15:20:42.649Z,11.24
2019-05-06T15:23:13.050Z,11.26
2019-05-06T15:25:41.387Z,11.28
2019-05-06T15:28:09.610Z,11.30
2019-05-06T15:30:45.467Z,11.27
2019-05-06T15:33:15.653Z,11.18
2019-05-06T15:35:45.500Z,11.04
2019-05-06T15:38:22.071Z,10.95
2019-05-06T15:40:52.415Z,10.98
2019-05-06T15:43:22.037Z,11.09
2019-05-06T15:45:52.580Z,11.22
2019-05-06T15:48:22.152Z,11.24
2019-05-06T15:50:53.032Z,11.16
2019-05-06T15:53:22.503Z,11.07
2019-05-06T15:55:53.466Z,10.89
2019-05-06T15:58:22.889Z,10.73
2019-05-06T16:00:53.182Z,10.61
2019-05-06T16:03:22.679Z,10.51
2019-05-06T16:05:54.625Z,10.53
2019-05-06T16:08:24.249Z,10.61
2019-05-06T16:10:55.773Z,10.59
2019-05-06T16:13:22.306Z,10.44
2019-05-06T16:15:53.213Z,10.32
2019-05-06T16:18:23.467Z,10.27
2019-05-06T16:20:51.559Z,10.14
2019-05-06T16:23:27.129Z,9.99
2019-05-06T16:25:55.351Z,9.92
2019-05-06T16:28:23.874Z,9.82
2019-05-06T16:30:53.404Z,9.75
2019-05-06T16:33:22.231Z,9.64
2019-05-06T16:35:52.282Z,9.51
2019-05-06T16:38:22.789Z,9.39
2019-05-06T16:40:54.611Z,9.37
2019-05-06T16:43:22.125Z,9.35
2019-05-06T16:45:52.947Z,9.33
2019-05-06T16:48:22.532Z,9.26
2019-05-06T16:50:51.035Z,9.23
2019-05-06T16:53:20.169Z,9.18
2019-05-06T16:55:56.148Z,9.15
2019-05-06T16:58:28.970Z,9.14
2019-05-06T17:00:57.206Z,9.14
2019-05-06T17:03:28.218Z,9.11
2019-05-06T17:06:04.006Z,9.07
2019-05-06T17:08:35.959Z,9.07
2019-05-06T17:11:04.580Z,9.04
2019-05-06T17:13:33.993Z,8.96
2019-05-06T17:16:02.576Z,8.91
2019-05-06T17:18:32.501Z,8.87
2019-05-06T17:21:01.164Z,8.88
2019-05-06T17:23:29.382Z,8.87
2019-05-06T17:25:57.614Z,8.85
2019-05-06T17:28:33.572Z,8.85
2019-05-06T17:31:18.584Z,8.85
2019-05-06T17:33:48.440Z,8.85
2019-05-06T17:36:18.309Z,8.86
2019-05-06T17:38:48.525Z,8.85
2019-05-06T17:41:16.768Z,8.85
2019-05-06T17:43:44.987Z,8.80
2019-05-06T17:46:15.115Z,8.77
2019-05-06T17:48:52.828Z,8.72
2019-05-06T17:51:25.544Z,8.68
2019-05-06T17:53:55.459Z,8.65
2019-05-06T17:56:23.671Z,8.60
2019-05-06T17:58:53.133Z,8.56
2019-05-06T18:01:23.371Z,8.54
2019-05-06T18:03:52.691Z,8.51
2019-05-06T18:06:22.964Z,8.48
2019-05-06T18:08:52.846Z,8.45
2019-05-06T18:11:22.378Z,8.41
2019-05-06T18:13:52.131Z,8.39
2019-05-06T18:16:22.256Z,8.35
2019-05-06T18:18:52.278Z,8.29
2019-05-06T18:21:22.792Z,8.26
2019-05-06T18:23:52.268Z,8.24
2019-05-06T18:26:22.773Z,8.19
2019-05-06T18:28:52.721Z,8.15
2019-05-06T18:31:22.130Z,8.14
2019-05-06T18:33:52.721Z,8.11
2019-05-06T18:36:22.699Z,8.09
2019-05-06T18:38:52.570Z,8.04
2019-05-06T18:41:20.908Z,8.02
2019-05-06T18:43:49.119Z,7.98
2019-05-06T18:46:17.323Z,7.96
2019-05-06T18:48:45.563Z,7.94
2019-05-06T18:51:14.119Z,7.92
2019-05-06T18:53:42.611Z,7.89
2019-05-06T18:56:12.652Z,7.84
2019-05-06T18:58:42.871Z,7.78
2019-05-06T19:01:13.308Z,7.71
2019-05-06T19:03:43.491Z,7.65
2019-05-06T19:06:12.049Z,7.59
2019-05-06T19:08:42.333Z,7.55
2019-05-06T19:11:12.344Z,7.50
2019-05-06T19:13:40.658Z,7.45
2019-05-06T19:16:09.174Z,7.41
2019-05-06T19:18:38.746Z,7.40
2019-05-06T19:21:07.072Z,7.40
2019-05-06T19:23:35.287Z,7.38
2019-05-06T19:26:03.489Z,7.35
2019-05-06T19:28:32.819Z,7.31
2019-05-06T19:31:03.100Z,7.25
2019-05-06T19:33:34.225Z,7.19
2019-05-06T19:36:03.104Z,7.12
2019-05-06T19:38:33.001Z,7.05
2019-05-06T19:41:02.142Z,6.99
2019-05-06T19:43:32.887Z,6.92
2019-05-06T19:46:02.588Z,6.85
2019-05-06T19:48:32.789Z,6.81
2019-05-06T19:51:02.926Z,6.78
2019-05-06T19:53:32.256Z,6.74
2019-05-06T19:56:02.768Z,6.69
2019-05-06T19:58:32.223Z,6.65
2019-05-06T20:01:02.357Z,6.61
2019-05-06T20:03:32.731Z,6.55
2019-05-06T20:06:02.782Z,6.50
2019-05-06T20:08:32.736Z,6.45
2019-05-06T20:11:02.566Z,6.45
2019-05-06T20:13:32.247Z,6.42
2019-05-06T20:16:02.259Z,6.38
2019-05-06T20:18:32.733Z,6.37
2019-05-06T20:21:00.517Z,6.32
2019-05-06T20:23:28.748Z,6.29
2019-05-06T20:25:57.229Z,6.27
2019-05-06T20:28:25.755Z,6.25
2019-05-06T20:30:53.987Z,6.21
2019-05-06T20:33:22.498Z,6.19
2019-05-06T20:35:52.548Z,6.15
2019-05-06T20:38:23.094Z,6.12
2019-05-06T20:40:50.692Z,6.10
2019-05-06T20:43:21.688Z,6.09
2019-05-06T20:45:48.833Z,6.08
2019-05-06T20:48:17.059Z,6.09
2019-05-06T20:50:45.283Z,6.11
2019-05-06T20:53:13.534Z,6.08
2019-05-06T20:55:43.403Z,6.09
2019-05-06T20:58:12.327Z,6.13
2019-05-06T21:00:43.013Z,6.13
2019-05-06T21:03:12.222Z,6.13
2019-05-06T21:05:43.210Z,6.15
2019-05-06T21:08:12.763Z,6.17
2019-05-06T21:10:42.499Z,6.16
2019-05-06T21:13:13.103Z,6.14
2019-05-06T21:15:43.116Z,6.12
2019-05-06T21:18:12.162Z,6.11
2019-05-06T21:20:40.623Z,6.12
2019-05-06T21:23:08.854Z,6.14
2019-05-06T21:25:37.418Z,6.18
2019-05-06T21:28:05.619Z,6.23
2019-05-06T21:30:33.823Z,6.27
2019-05-06T21:33:02.046Z,6.29
2019-05-06T21:35:30.498Z,6.30
2019-05-06T21:37:58.992Z,6.32
2019-05-06T21:40:27.191Z,6.33
2019-05-06T21:42:55.407Z,6.32
2019-05-06T21:45:23.650Z,6.28
2019-05-06T21:47:52.983Z,6.21
2019-05-06T21:50:22.813Z,6.09
2019-05-06T21:52:51.179Z,5.99
2019-05-06T21:55:22.705Z,5.91
2019-05-06T21:57:52.996Z,5.81
2019-05-06T22:00:23.445Z,5.75
2019-05-06T22:02:52.965Z,5.68
2019-05-06T22:05:22.672Z,5.61
2019-05-06T22:07:52.584Z,5.55
2019-05-06T22:10:22.744Z,5.52
2019-05-06T22:12:52.692Z,5.51
2019-05-06T22:15:22.796Z,5.49
2019-05-06T22:17:54.252Z,5.47
2019-05-06T22:20:23.623Z,5.47
2019-05-06T22:22:52.091Z,5.42
2019-05-06T22:25:22.109Z,5.37
2019-05-06T22:27:51.905Z,5.31
2019-05-06T22:30:23.699Z,5.28
2019-05-06T22:32:52.563Z,5.24
2019-05-06T22:35:20.133Z,5.21
2019-05-06T22:37:48.358Z,5.20
2019-05-06T22:40:16.601Z,5.16
2019-05-06T22:42:44.787Z,5.15
2019-05-06T22:45:13.476Z,5.10
2019-05-06T22:47:42.220Z,5.07
2019-05-06T22:50:12.889Z,5.03
2019-05-06T22:52:42.106Z,4.98
2019-05-06T22:55:12.805Z,4.98
2019-05-06T22:57:42.242Z,4.94
2019-05-06T23:00:15.109Z,4.92
2019-05-06T23:02:57.070Z,4.93
2019-05-06T23:05:25.320Z,4.91
2019-05-06T23:07:53.535Z,4.88
2019-05-06T23:10:24.569Z,4.86
2019-05-06T23:12:52.373Z,4.82
2019-05-06T23:15:20.968Z,4.77
2019-05-06T23:17:49.194Z,4.73
2019-05-06T23:20:17.731Z,4.70
2019-05-06T23:22:45.970Z,4.67
2019-05-06T23:25:15.165Z,4.69
2019-05-06T23:27:44.114Z,4.70
2019-05-06T23:30:12.901Z,4.74
2019-05-06T23:32:42.276Z,4.74
2019-05-06T23:35:12.746Z,4.73
2019-05-06T23:38:17.624Z,4.72
2019-05-06T23:41:22.663Z,4.69
2019-05-06T23:44:41.520Z,4.64
2019-05-06T23:47:34.690Z,4.63
2019-05-06T23:50:39.963Z,4.58
2019-05-06T23:53:45.391Z,4.57
2019-05-06T23:56:43.274Z,4.53
2019-05-06T23:59:12.637Z,4.52
